Time;durP1;ratioP1;P1;durP2;ratioP2;P2;SDS_P1;SDS_P2;PMS_P1;PMS_P2;Temp;Humidity;BMP_temperature;BMP_pressure;BME280_temperature;BME280_humidity;BME280_pressure;Samples;Min_cycle;Max_cycle;Signal;HPM_P1;HPM_P2
2023/06/29 04:07:19;;;;;;;2.30;2.20;;;15.10;99.90;;;;;;4973009;28;20557;-62
2023/06/29 04:09:44;;;;;;;2.70;2.50;;;15.20;99.90;;;;;;4974222;28;20447;-62
2023/06/29 04:12:10;;;;;;;4.13;2.43;;;15.30;99.90;;;;;;4974155;28;20211;-62
2023/06/29 04:14:36;;;;;;;2.07;1.93;;;15.40;99.90;;;;;;4973896;28;20192;-62
2023/06/29 04:17:01;;;;;;;2.33;2.23;;;15.60;99.90;;;;;;4973816;28;20214;-63
2023/06/29 04:19:27;;;;;;;2.67;2.50;;;15.90;99.90;;;;;;4975495;28;20610;-62
2023/06/29 04:21:52;;;;;;;3.53;3.20;;;16.10;99.90;;;;;;4976655;28;20183;-63
2023/06/29 04:24:18;;;;;;;2.93;2.60;;;16.20;99.90;;;;;;4977615;28;20187;-62
2023/06/29 04:26:43;;;;;;;2.53;2.33;;;16.50;99.90;;;;;;4977917;28;20685;-63
2023/06/29 04:29:09;;;;;;;3.00;2.80;;;16.60;99.90;;;;;;4978228;28;20223;-62
2023/06/29 04:31:35;;;;;;;3.80;3.50;;;16.80;99.90;;;;;;4977757;28;20635;-62
2023/06/29 04:34:02;;;;;;;3.63;3.33;;;16.90;99.90;;;;;;4977002;28;20180;-63
2023/06/29 04:36:28;;;;;;;2.40;2.30;;;16.90;99.90;;;;;;4977425;28;20269;-62
2023/06/29 04:38:54;;;;;;;2.63;2.47;;;16.90;99.90;;;;;;4977804;28;20423;-62
2023/06/29 04:41:30;;;;;;;3.03;2.73;;;17.00;99.90;;;;;;4977182;28;20567;-62
2023/06/29 04:43:57;;;;;;;4.47;2.20;;;17.10;99.90;;;;;;4976045;28;20182;-63
2023/06/29 04:46:23;;;;;;;2.83;2.63;;;17.30;99.90;;;;;;4976840;28;20480;-64
2023/06/29 04:48:49;;;;;;;2.50;2.00;;;17.50;99.90;;;;;;4977265;28;20820;-63
2023/06/29 04:51:17;;;;;;;5.90;2.27;;;17.60;99.90;;;;;;4977575;28;20268;-62
2023/06/29 04:53:43;;;;;;;3.03;2.83;;;17.70;99.90;;;;;;4977189;28;20240;-62
2023/06/29 04:56:08;;;;;;;2.50;2.40;;;17.70;99.90;;;;;;4977344;28;20458;-62
2023/06/29 04:58:34;;;;;;;2.83;2.53;;;17.70;99.90;;;;;;4976928;28;20206;-62
2023/06/29 05:01:00;;;;;;;3.00;2.80;;;17.80;99.90;;;;;;4976902;28;20174;-62
2023/06/29 05:03:26;;;;;;;3.43;3.13;;;17.80;99.90;;;;;;4976985;28;20186;-62
2023/06/29 05:05:52;;;;;;;3.60;3.30;;;17.90;99.90;;;;;;4976613;28;20534;-63
2023/06/29 05:08:18;;;;;;;3.30;3.10;;;18.00;99.90;;;;;;4966413;28;20591;-63
2023/06/29 05:10:43;;;;;;;2.90;2.70;;;18.00;99.90;;;;;;4959959;28;20198;-62
2023/06/29 05:13:09;;;;;;;3.17;2.97;;;18.10;99.90;;;;;;4964116;28;20516;-63
2023/06/29 05:15:35;;;;;;;2.67;2.47;;;18.10;99.90;;;;;;4973360;28;20558;-64
2023/06/29 05:18:00;;;;;;;4.70;3.10;;;18.20;99.90;;;;;;4976813;28;20259;-62
2023/06/29 05:20:26;;;;;;;2.80;2.57;;;18.20;99.90;;;;;;4976547;28;20172;-61
2023/06/29 05:22:52;;;;;;;2.93;2.73;;;18.10;99.90;;;;;;4976420;28;20190;-62
2023/06/29 05:25:17;;;;;;;2.57;2.37;;;18.10;99.90;;;;;;4975912;28;20551;-62
2023/06/29 05:27:43;;;;;;;2.13;2.03;;;18.20;99.90;;;;;;4976303;28;20172;-62
2023/06/29 05:30:09;;;;;;;3.53;3.23;;;18.20;99.90;;;;;;4976159;28;20506;-62
2023/06/29 05:32:36;;;;;;;3.90;2.60;;;18.30;99.90;;;;;;4976801;28;20179;-62
2023/06/29 05:35:02;;;;;;;6.20;3.20;;;18.40;99.90;;;;;;4976324;28;20788;-64
2023/06/29 05:37:29;;;;;;;3.20;2.90;;;18.70;99.90;;;;;;4974561;28;20458;-63
2023/06/29 05:39:56;;;;;;;2.27;2.17;;;19.10;99.90;;;;;;4957286;28;20425;-66
2023/06/29 05:42:25;;;;;;;2.57;2.37;;;19.70;99.90;;;;;;4957064;28;20785;-64
2023/06/29 05:44:50;;;;;;;1.97;1.87;;;20.40;99.10;;;;;;4957631;28;20431;-64
2023/06/29 05:47:17;;;;;;;1.60;1.50;;;20.90;96.80;;;;;;4957289;28;20428;-63
2023/06/29 05:49:43;;;;;;;2.30;2.20;;;21.20;95.40;;;;;;4957056;28;20216;-62
2023/06/29 05:52:08;;;;;;;2.23;2.03;;;21.20;94.00;;;;;;4957084;28;20452;-63
2023/06/29 05:54:34;;;;;;;1.80;1.70;;;21.20;93.90;;;;;;4956563;29;20200;-63
2023/06/29 05:56:59;;;;;;;1.70;1.60;;;21.20;93.30;;;;;;4959963;28;20228;-62
2023/06/29 05:59:25;;;;;;;1.93;1.83;;;21.10;93.60;;;;;;4957107;28;20204;-62
2023/06/29 06:01:51;;;;;;;2.27;2.07;;;21.00;93.90;;;;;;4956901;29;20539;-61
2023/06/29 06:04:16;;;;;;;2.33;2.10;;;21.00;94.10;;;;;;4963167;28;20598;-62
2023/06/29 06:06:42;;;;;;;2.00;1.90;;;21.00;94.00;;;;;;4956228;28;20193;-62
2023/06/29 06:09:08;;;;;;;2.40;2.30;;;21.00;94.10;;;;;;4956650;28;20647;-62
2023/06/29 06:11:33;;;;;;;2.53;2.43;;;21.00;94.70;;;;;;4966280;28;20191;-61
2023/06/29 06:13:59;;;;;;;2.37;2.17;;;20.90;94.50;;;;;;4975555;28;20176;-62
2023/06/29 06:16:24;;;;;;;2.13;2.03;;;20.80;95.00;;;;;;4975441;28;20200;-62
2023/06/29 06:18:50;;;;;;;2.60;2.37;;;20.90;94.80;;;;;;4975816;28;20191;-62
2023/06/29 06:21:15;;;;;;;2.33;2.13;;;20.90;94.60;;;;;;4975619;28;20198;-62
2023/06/29 06:23:41;;;;;;;2.27;2.10;;;21.00;94.40;;;;;;4975499;28;20269;-62
2023/06/29 06:26:07;;;;;;;1.90;1.80;;;21.10;94.60;;;;;;4975517;28;20204;-61
2023/06/29 06:28:33;;;;;;;2.87;2.23;;;21.30;94.10;;;;;;4975629;28;20447;-61
2023/06/29 06:30:58;;;;;;;1.90;1.80;;;21.50;93.90;;;;;;4975710;28;20263;-62
2023/06/29 06:33:24;;;;;;;2.50;2.30;;;21.70;94.00;;;;;;4975451;28;20177;-62
2023/06/29 06:35:49;;;;;;;1.73;1.63;;;21.90;93.60;;;;;;4975534;28;20197;-62
2023/06/29 06:38:15;;;;;;;2.07;1.97;;;22.10;92.90;;;;;;4975609;28;20220;-61
2023/06/29 06:40:41;;;;;;;2.10;2.00;;;22.10;92.90;;;;;;4961414;28;20189;-61
2023/06/29 06:43:06;;;;;;;2.57;2.23;;;22.20;92.70;;;;;;4955248;28;20180;-62
2023/06/29 06:45:32;;;;;;;1.90;1.80;;;22.20;92.80;;;;;;4955543;29;20199;-61
2023/06/29 06:47:58;;;;;;;2.17;2.03;;;22.20;92.60;;;;;;4956385;29;20208;-61
2023/06/29 06:50:23;;;;;;;2.10;2.00;;;22.10;92.70;;;;;;4968261;28;20193;-61
2023/06/29 06:52:49;;;;;;;2.40;2.30;;;22.00;93.10;;;;;;4975102;28;20177;-61
2023/06/29 06:55:15;;;;;;;2.43;2.23;;;22.00;93.30;;;;;;4974598;28;20245;-61
2023/06/29 06:57:41;;;;;;;2.90;2.70;;;22.00;92.80;;;;;;4975628;28;20466;-61
2023/06/29 07:00:10;;;;;;;2.80;2.60;;;22.10;92.90;;;;;;4975230;28;20179;-61
2023/06/29 07:02:36;;;;;;;3.10;2.80;;;22.10;92.80;;;;;;4959576;28;20174;-62
2023/06/29 07:05:04;;;;;;;2.00;1.90;;;22.20;92.90;;;;;;4955291;28;20428;-62
2023/06/29 07:07:30;;;;;;;2.00;1.90;;;22.30;92.50;;;;;;4955945;28;20260;-61
2023/06/29 07:09:56;;;;;;;1.97;1.87;;;22.40;91.70;;;;;;4955700;28;20506;-62
2023/06/29 07:12:21;;;;;;;2.50;2.30;;;22.50;91.40;;;;;;4955583;29;20182;-61
2023/06/29 07:14:47;;;;;;;2.40;2.30;;;22.60;91.30;;;;;;4955568;28;20205;-62
2023/06/29 07:17:13;;;;;;;2.33;2.23;;;22.70;91.10;;;;;;4974652;28;20278;-61
2023/06/29 07:19:38;;;;;;;2.50;2.30;;;22.80;91.20;;;;;;4974966;28;20172;-61
2023/06/29 07:22:04;;;;;;;2.20;2.10;;;22.90;91.20;;;;;;4974979;28;20182;-61
2023/06/29 07:24:30;;;;;;;2.47;2.37;;;23.00;91.10;;;;;;4974143;28;20797;-62
2023/06/29 07:26:55;;;;;;;2.10;2.00;;;23.20;90.60;;;;;;4974646;28;20762;-62
2023/06/29 07:29:21;;;;;;;2.57;2.37;;;23.50;89.60;;;;;;4972637;28;20183;-62
2023/06/29 07:31:46;;;;;;;2.57;2.40;;;24.20;88.80;;;;;;4955420;29;20184;-62
2023/06/29 07:34:12;;;;;;;2.57;1.90;;;24.80;87.50;;;;;;4955025;29;20690;-62
2023/06/29 07:36:39;;;;;;;1.40;1.40;;;25.40;84.20;;;;;;4955637;29;20183;-62
2023/06/29 07:39:04;;;;;;;2.33;2.13;;;26.00;82.40;;;;;;4955317;29;20179;-62
2023/06/29 07:41:31;;;;;;;2.77;2.57;;;26.50;80.40;;;;;;4955364;29;20395;-62
2023/06/29 07:43:57;;;;;;;2.00;1.90;;;26.80;79.30;;;;;;4961239;28;20184;-62
2023/06/29 07:46:24;;;;;;;2.20;2.10;;;27.10;78.70;;;;;;4974538;28;20407;-62
2023/06/29 07:48:50;;;;;;;2.23;2.13;;;27.60;76.60;;;;;;4975120;28;20419;-62
2023/06/29 07:51:17;;;;;;;2.93;2.73;;;27.90;74.40;;;;;;4974661;28;20411;-62
2023/06/29 07:53:43;;;;;;;2.23;2.13;;;28.40;73.30;;;;;;4973093;28;20402;-64
2023/06/29 07:56:09;;;;;;;2.13;2.03;;;29.30;71.70;;;;;;4978621;28;20750;-63
2023/06/29 07:58:35;;;;;;;2.83;2.63;;;30.50;68.50;;;;;;4972555;28;20527;-62
2023/06/29 08:01:01;;;;;;;3.23;2.17;;;31.90;64.00;;;;;;4959017;28;20428;-63
2023/06/29 08:03:27;;;;;;;2.63;2.43;;;32.70;60.40;;;;;;4958791;28;20506;-62
2023/06/29 08:05:53;;;;;;;2.07;1.97;;;33.40;59.40;;;;;;4958836;28;20429;-62
2023/06/29 08:08:21;;;;;;;2.10;2.00;;;34.10;57.70;;;;;;4958861;29;20432;-63
2023/06/29 08:10:49;;;;;;;2.80;2.60;;;34.70;55.80;;;;;;4958720;28;20255;-63
2023/06/29 08:13:16;;;;;;;2.83;2.60;;;35.40;55.10;;;;;;4969973;28;20423;-63
2023/06/29 08:15:42;;;;;;;2.50;2.40;;;35.80;53.60;;;;;;4977688;28;20455;-63
2023/06/29 08:18:07;;;;;;;2.20;2.10;;;36.10;53.90;;;;;;4977991;28;20466;-63
2023/06/29 08:20:33;;;;;;;2.83;2.73;;;36.80;52.50;;;;;;4978307;28;20180;-64
2023/06/29 08:22:58;;;;;;;2.40;2.30;;;37.80;51.90;;;;;;4977920;28;20263;-63
2023/06/29 08:25:24;;;;;;;3.13;2.90;;;38.10;50.10;;;;;;4977743;28;20579;-63
2023/06/29 08:27:50;;;;;;;2.50;2.40;;;38.20;49.20;;;;;;4978105;28;20658;-63
2023/06/29 08:30:16;;;;;;;2.17;2.07;;;38.30;49.70;;;;;;4977943;28;20180;-63
2023/06/29 08:32:43;;;;;;;2.50;2.40;;;38.40;49.70;;;;;;4964194;28;20503;-64
2023/06/29 08:35:09;;;;;;;2.20;2.10;;;38.40;48.20;;;;;;4958145;28;20227;-64
2023/06/29 08:37:34;;;;;;;2.17;2.07;;;38.50;48.70;;;;;;4958627;28;20941;-63
2023/06/29 08:40:00;;;;;;;1.80;1.70;;;38.60;46.50;;;;;;4958514;29;20412;-63
2023/06/29 08:42:27;;;;;;;2.27;2.17;;;38.70;46.50;;;;;;4958549;28;20177;-63
2023/06/29 08:44:53;;;;;;;1.57;1.57;;;38.00;46.20;;;;;;4958017;28;20211;-61
2023/06/29 08:47:19;;;;;;;1.60;1.50;;;37.30;46.00;;;;;;4970445;28;20419;-61
2023/06/29 08:49:46;;;;;;;1.80;1.70;;;36.60;45.90;;;;;;4977481;28;20541;-60
2023/06/29 08:52:15;;;;;;;1.40;1.33;;;35.90;46.40;;;;;;4977476;28;20635;-61
2023/06/29 08:54:42;;;;;;;1.90;1.80;;;35.10;47.30;;;;;;4977244;28;20504;-60
2023/06/29 08:57:09;;;;;;;1.70;1.60;;;34.30;47.70;;;;;;4977416;28;20916;-60
2023/06/29 08:59:37;;;;;;;1.53;1.53;;;33.60;48.30;;;;;;4977394;28;20417;-64
2023/06/29 09:02:04;;;;;;;1.67;1.57;;;33.10;49.30;;;;;;4958267;28;20781;-63
2023/06/29 09:04:30;;;;;;;1.93;1.83;;;32.70;50.20;;;;;;4957375;28;20433;-64
2023/06/29 09:06:56;;;;;;;2.03;1.83;;;32.30;51.20;;;;;;4957390;29;20917;-63
2023/06/29 09:09:22;;;;;;;1.67;1.57;;;32.30;51.70;;;;;;4958009;29;20587;-64
2023/06/29 09:11:48;;;;;;;1.70;1.60;;;32.80;51.60;;;;;;4957830;29;20208;-64
2023/06/29 09:14:13;;;;;;;1.70;1.60;;;33.70;51.40;;;;;;4961275;28;20461;-63
2023/06/29 09:16:53;;;;;;;2.63;2.27;;;34.80;50.60;;;;;;4977191;28;20180;-64
2023/06/29 09:19:20;;;;;;;2.00;1.90;;;35.80;49.00;;;;;;4977176;28;20172;-64
2023/06/29 09:21:47;;;;;;;2.10;1.90;;;36.50;47.60;;;;;;4977020;28;20411;-64
2023/06/29 09:24:16;;;;;;;1.83;1.73;;;37.00;46.70;;;;;;4976565;28;20412;-64
2023/06/29 09:26:42;;;;;;;1.90;1.80;;;37.20;46.40;;;;;;4976698;28;20419;-64
2023/06/29 09:29:08;;;;;;;1.87;1.77;;;37.20;46.00;;;;;;4970303;28;20770;-64
2023/06/29 09:31:36;;;;;;;1.43;1.43;;;37.20;46.20;;;;;;4957537;29;20474;-65
2023/06/29 09:34:22;;;;;;;1.70;1.60;;;37.50;45.10;;;;;;4971030;28;20416;-64
2023/06/29 09:36:48;;;;;;;2.07;1.97;;;37.80;43.90;;;;;;4976574;28;20474;-65
2023/06/29 09:39:15;;;;;;;1.80;1.70;;;37.70;43.70;;;;;;4976771;28;20404;-66
2023/06/29 09:41:50;;;;;;;1.87;1.77;;;37.50;44.00;;;;;;4976819;28;20414;-65
2023/06/29 09:44:20;;;;;;;1.70;1.60;;;37.20;44.30;;;;;;4966560;28;20877;-64
2023/06/29 09:46:49;;;;;;;1.90;1.80;;;37.00;45.00;;;;;;4957122;28;20511;-65
2023/06/29 09:49:15;;;;;;;4.30;1.80;;;36.20;45.50;;;;;;4957123;29;20448;-65
2023/06/29 09:51:41;;;;;;;2.03;1.90;;;35.80;46.10;;;;;;4957310;29;20462;-65
2023/06/29 09:54:14;;;;;;;2.00;1.90;;;35.40;46.90;;;;;;4956871;28;20173;-64
2023/06/29 09:56:40;;;;;;;1.80;1.70;;;35.30;47.50;;;;;;4956876;29;20810;-64
2023/06/29 09:59:10;;;;;;;2.20;2.00;;;35.10;47.50;;;;;;4973816;28;20428;-65
2023/06/29 10:01:37;;;;;;;1.60;1.50;;;35.30;48.20;;;;;;4976319;28;20501;-65
2023/06/29 10:04:04;;;;;;;1.90;1.80;;;35.90;48.20;;;;;;4975912;28;20412;-64
2023/06/29 10:06:43;;;;;;;2.10;2.00;;;37.00;47.10;;;;;;4976110;28;20424;-65
2023/06/29 10:09:14;;;;;;;3.00;2.30;;;37.60;46.30;;;;;;4976237;28;20495;-65
2023/06/29 10:11:44;;;;;;;1.90;1.80;;;37.50;45.60;;;;;;4975765;28;20395;-64
2023/06/29 10:14:13;;;;;;;2.00;1.90;;;37.40;45.50;;;;;;4956258;29;20412;-64
2023/06/29 10:16:44;;;;;;;2.20;2.10;;;37.70;46.10;;;;;;4955961;28;20409;-64
2023/06/29 10:19:21;;;;;;;2.33;2.23;;;38.00;45.20;;;;;;4956790;28;20488;-64
2023/06/29 10:21:56;;;;;;;1.80;1.80;;;38.50;45.20;;;;;;4956655;28;20617;-64
2023/06/29 10:24:29;;;;;;;2.07;1.97;;;38.70;44.40;;;;;;4956339;28;20517;-64
2023/06/29 10:26:57;;;;;;;2.30;2.20;;;38.60;44.30;;;;;;4972432;28;20428;-64
2023/06/29 10:29:22;;;;;;;1.90;1.80;;;38.00;44.90;;;;;;4975865;28;20835;-64
2023/06/29 10:31:48;;;;;;;1.90;1.80;;;37.50;44.70;;;;;;4975867;28;20419;-65
2023/06/29 10:34:14;;;;;;;1.97;1.87;;;36.70;45.00;;;;;;4975357;28;20183;-64
2023/06/29 10:36:49;;;;;;;1.53;1.53;;;35.90;45.60;;;;;;4975763;28;20180;-63
2023/06/29 10:39:43;;;;;;;1.67;1.57;;;35.60;46.50;;;;;;4972620;28;20494;-62
2023/06/29 10:42:29;;;;;;;2.37;2.17;;;35.40;46.70;;;;;;4958004;28;20409;-62
2023/06/29 10:44:55;;;;;;;1.80;1.70;;;35.00;46.70;;;;;;4975182;28;20435;-62
2023/06/29 10:47:36;;;;;;;1.70;1.57;;;35.00;47.60;;;;;;4975579;28;20401;-63
2023/06/29 10:50:11;;;;;;;1.70;1.60;;;35.10;47.50;;;;;;4975292;28;20659;-63
2023/06/29 10:52:42;;;;;;;1.60;1.50;;;35.40;46.40;;;;;;4975325;28;20414;-63
2023/06/29 10:55:26;;;;;;;1.57;1.50;;;36.00;47.10;;;;;;4962862;28;20445;-62
2023/06/29 10:57:54;;;;;;;1.90;1.80;;;36.50;46.60;;;;;;4956013;28;20486;-62
2023/06/29 11:00:20;;;;;;;1.70;1.60;;;36.60;45.70;;;;;;4971013;28;20394;-63
2023/06/29 11:02:48;;;;;;;1.80;1.70;;;36.50;45.40;;;;;;4975080;28;20439;-63
2023/06/29 11:05:14;;;;;;;2.43;2.23;;;36.10;45.40;;;;;;4974431;28;20841;-62
2023/06/29 11:07:41;;;;;;;1.50;1.40;;;35.80;45.50;;;;;;4973911;28;20430;-63
2023/06/29 11:10:07;;;;;;;2.00;1.90;;;35.80;46.50;;;;;;4955574;28;20417;-62
2023/06/29 11:12:33;;;;;;;1.93;1.83;;;36.00;46.40;;;;;;4955784;28;20408;-62
2023/06/29 11:14:58;;;;;;;2.10;2.00;;;36.20;45.80;;;;;;4955167;28;20411;-62
2023/06/29 11:17:24;;;;;;;2.13;1.90;;;36.10;46.00;;;;;;4955533;29;20205;-62
2023/06/29 11:19:50;;;;;;;2.50;2.30;;;35.70;46.80;;;;;;4955476;28;20640;-62
2023/06/29 11:22:21;;;;;;;2.00;1.80;;;35.20;46.70;;;;;;4955619;28;20169;-61
2023/06/29 11:24:47;;;;;;;1.90;1.80;;;34.60;47.00;;;;;;4954916;29;20201;-62
2023/06/29 11:27:16;;;;;;;1.93;1.83;;;34.20;46.90;;;;;;4955362;28;20434;-61
2023/06/29 11:29:42;;;;;;;3.13;2.00;;;33.40;47.80;;;;;;4955480;28;20180;-61
2023/06/29 11:32:11;;;;;;;2.53;2.27;;;32.90;48.70;;;;;;4956310;28;20899;-61
2023/06/29 11:34:37;;;;;;;2.50;2.33;;;32.50;49.40;;;;;;4974165;28;20200;-62
2023/06/29 11:37:02;;;;;;;2.33;2.23;;;32.40;50.50;;;;;;4974395;28;20469;-62
2023/06/29 11:39:29;;;;;;;2.20;2.10;;;32.40;51.10;;;;;;4974056;28;20210;-65
2023/06/29 11:41:55;;;;;;;2.43;2.17;;;32.40;51.40;;;;;;4956933;28;20176;-62
2023/06/29 11:44:25;;;;;;;2.70;2.50;;;32.60;51.40;;;;;;4954885;28;20414;-62
2023/06/29 11:46:54;;;;;;;2.70;2.50;;;32.60;50.10;;;;;;4953897;29;20411;-61
2023/06/29 11:49:20;;;;;;;2.63;2.43;;;32.40;50.60;;;;;;4955249;28;20399;-61
2023/06/29 11:51:46;;;;;;;2.63;2.27;;;32.30;50.90;;;;;;4960157;28;20402;-62
2023/06/29 11:54:14;;;;;;;2.67;2.47;;;32.20;50.10;;;;;;4974288;28;20288;-64
2023/06/29 11:56:41;;;;;;;2.80;2.57;;;31.90;50.50;;;;;;4974622;28;20793;-62
2023/06/29 11:59:10;;;;;;;2.33;2.13;;;31.70;51.50;;;;;;4974613;28;20383;-62
2023/06/29 12:01:37;;;;;;;2.80;2.60;;;31.40;51.70;;;;;;4973877;28;20788;-63
2023/06/29 12:04:06;;;;;;;2.33;2.13;;;31.20;52.80;;;;;;4974195;28;20465;-63
2023/06/29 12:06:53;;;;;;;2.43;1.87;;;31.00;51.90;;;;;;4974530;28;20510;-64
2023/06/29 12:09:18;;;;;;;2.70;2.30;;;30.80;52.00;;;;;;4955405;28;20483;-64
2023/06/29 12:11:44;;;;;;;3.20;2.90;;;30.70;52.30;;;;;;4955020;28;20424;-62
2023/06/29 12:14:10;;;;;;;2.43;2.23;;;30.70;52.60;;;;;;4954582;28;20231;-62
2023/06/29 12:16:42;;;;;;;2.50;2.20;;;30.70;52.80;;;;;;4954958;28;20169;-61
2023/06/29 12:19:13;;;;;;;2.10;2.00;;;30.60;52.80;;;;;;4954866;28;20443;-63
2023/06/29 12:21:39;;;;;;;2.53;2.37;;;30.70;52.40;;;;;;4955015;28;20390;-63
2023/06/29 12:24:05;;;;;;;2.33;2.23;;;30.70;52.90;;;;;;4956027;28;20407;-64
2023/06/29 12:26:31;;;;;;;2.87;2.67;;;30.50;53.10;;;;;;4953951;28;20444;-64
2023/06/29 12:28:57;;;;;;;2.13;2.03;;;30.50;53.60;;;;;;4953880;28;20391;-64
2023/06/29 12:31:27;;;;;;;2.83;2.63;;;30.70;53.80;;;;;;4952751;28;20505;-65
2023/06/29 12:33:53;;;;;;;3.23;2.97;;;30.90;53.50;;;;;;4953503;28;20177;-64
2023/06/29 12:36:19;;;;;;;2.97;2.67;;;31.10;52.90;;;;;;4953776;28;20434;-65
2023/06/29 12:38:49;;;;;;;2.90;2.70;;;31.30;53.00;;;;;;4972033;28;20209;-64
2023/06/29 12:41:15;;;;;;;2.90;2.70;;;31.60;53.40;;;;;;4976102;28;20431;-64
2023/06/29 12:43:40;;;;;;;2.43;2.23;;;31.80;52.10;;;;;;4992065;28;20420;-64
2023/06/29 12:46:10;;;;;;;3.07;2.87;;;31.90;52.00;;;;;;4977590;28;20185;-64
2023/06/29 12:48:37;;;;;;;2.97;2.77;;;31.90;52.20;;;;;;4977646;28;20177;-64
2023/06/29 12:51:02;;;;;;;2.57;2.37;;;31.80;52.30;;;;;;4977688;28;20394;-63
2023/06/29 12:53:29;;;;;;;2.50;2.33;;;32.00;52.40;;;;;;4958481;28;20801;-64
2023/06/29 12:55:55;;;;;;;2.40;2.30;;;32.10;52.90;;;;;;4958178;28;20201;-64
2023/06/29 12:58:20;;;;;;;3.20;2.90;;;31.90;52.80;;;;;;4957825;28;20481;-64
2023/06/29 13:00:46;;;;;;;2.33;2.23;;;31.50;53.50;;;;;;4958042;28;20409;-64
2023/06/29 13:03:14;;;;;;;3.00;2.80;;;31.10;54.30;;;;;;4958021;28;20165;-66
2023/06/29 13:05:40;;;;;;;2.93;2.63;;;30.60;55.30;;;;;;4956502;29;20722;-64
2023/06/29 13:08:06;;;;;;;3.13;2.93;;;30.30;56.30;;;;;;4966677;28;20410;-64
2023/06/29 13:10:33;;;;;;;2.30;2.10;;;30.10;56.30;;;;;;4977000;28;20991;-64
2023/06/29 13:12:59;;;;;;;3.00;2.80;;;29.90;56.60;;;;;;4977028;28;20200;-63
2023/06/29 13:15:25;;;;;;;2.30;2.20;;;29.80;56.60;;;;;;4976669;28;20405;-63
2023/06/29 13:17:51;;;;;;;2.57;2.37;;;29.60;56.70;;;;;;4976844;28;20422;-63
2023/06/29 13:20:17;;;;;;;2.40;2.30;;;29.30;57.10;;;;;;4977066;28;20183;-64
2023/06/29 13:22:43;;;;;;;3.00;2.80;;;29.20;57.50;;;;;;4968534;28;20400;-64
2023/06/29 13:25:09;;;;;;;2.40;2.30;;;29.10;57.70;;;;;;4957391;28;20231;-64
2023/06/29 13:27:37;;;;;;;2.60;2.40;;;29.10;57.50;;;;;;4957729;28;20765;-64
2023/06/29 13:30:04;;;;;;;3.13;2.83;;;28.90;57.70;;;;;;4957535;28;20460;-64
2023/06/29 13:32:29;;;;;;;2.13;2.00;;;28.80;57.60;;;;;;4958839;28;20446;-64
2023/06/29 13:34:55;;;;;;;3.20;2.90;;;28.70;57.90;;;;;;4976201;28;20793;-64
2023/06/29 13:37:22;;;;;;;2.00;1.90;;;28.60;58.10;;;;;;4976323;28;20717;-64
2023/06/29 13:39:48;;;;;;;2.13;1.93;;;28.50;58.50;;;;;;4976665;28;20594;-64
2023/06/29 13:42:15;;;;;;;2.93;2.70;;;28.40;58.50;;;;;;4976499;28;20415;-63
2023/06/29 13:44:41;;;;;;;2.13;2.03;;;28.40;59.40;;;;;;4975913;28;20410;-63
2023/06/29 13:47:07;;;;;;;2.30;2.20;;;28.50;59.50;;;;;;4975580;28;20400;-63
2023/06/29 13:49:33;;;;;;;2.20;2.00;;;28.40;58.80;;;;;;4956910;29;20383;-63
2023/06/29 13:51:59;;;;;;;2.53;2.33;;;28.30;59.50;;;;;;4957064;28;20255;-63
2023/06/29 13:54:24;;;;;;;2.77;2.57;;;28.40;59.10;;;;;;4956839;29;20243;-63
2023/06/29 13:56:50;;;;;;;3.03;2.83;;;28.60;59.60;;;;;;4956990;29;20173;-63
2023/06/29 13:59:16;;;;;;;2.47;2.27;;;28.70;59.80;;;;;;4957310;28;20212;-64
2023/06/29 14:01:41;;;;;;;2.80;2.40;;;28.90;59.60;;;;;;4963142;28;20425;-64
2023/06/29 14:04:10;;;;;;;3.27;3.10;;;29.00;59.30;;;;;;4975868;28;20218;-63
2023/06/29 14:06:38;;;;;;;2.40;2.30;;;29.10;58.60;;;;;;4976025;28;20192;-64
2023/06/29 14:09:08;;;;;;;2.20;2.10;;;29.10;58.70;;;;;;4976422;28;20407;-63
2023/06/29 14:11:34;;;;;;;2.77;2.40;;;29.20;58.80;;;;;;4976232;28;20758;-63
2023/06/29 14:14:00;;;;;;;2.87;2.57;;;29.20;58.40;;;;;;4975659;28;20404;-64
2023/06/29 14:16:26;;;;;;;5.57;2.40;;;29.10;58.70;;;;;;4969824;28;20177;-63
2023/06/29 14:18:53;;;;;;;2.30;2.20;;;29.10;58.00;;;;;;4956362;28;20668;-64
2023/06/29 14:21:19;;;;;;;2.60;2.00;;;29.10;58.40;;;;;;4956770;28;20409;-63
2023/06/29 14:23:45;;;;;;;2.13;2.03;;;29.10;58.10;;;;;;4954977;29;20402;-64
2023/06/29 14:26:11;;;;;;;2.00;1.90;;;29.10;58.40;;;;;;4956572;28;20498;-64
2023/06/29 14:28:37;;;;;;;3.23;2.63;;;29.20;58.10;;;;;;4956614;28;20467;-63
2023/06/29 14:31:02;;;;;;;2.53;2.33;;;29.20;57.80;;;;;;4961289;28;20188;-64
2023/06/29 14:33:29;;;;;;;2.20;2.07;;;29.20;58.10;;;;;;4975381;28;20804;-64
2023/06/29 14:35:57;;;;;;;2.43;2.33;;;29.10;58.10;;;;;;4974267;28;20283;-63
2023/06/29 14:38:23;;;;;;;2.77;2.57;;;29.00;58.10;;;;;;4975126;28;20438;-63
2023/06/29 14:40:48;;;;;;;2.97;2.77;;;28.90;58.70;;;;;;4975798;28;20387;-64
2023/06/29 14:43:14;;;;;;;3.57;2.40;;;28.90;59.10;;;;;;4975253;28;20199;-63
2023/06/29 14:45:40;;;;;;;2.40;2.20;;;28.90;58.80;;;;;;4975405;28;20234;-63
2023/06/29 14:48:06;;;;;;;2.20;2.10;;;28.80;58.60;;;;;;4968687;28;20192;-64
2023/06/29 14:50:32;;;;;;;2.33;2.23;;;29.00;59.10;;;;;;4962793;28;20516;-63
2023/06/29 14:52:57;;;;;;;3.73;2.37;;;29.00;58.70;;;;;;4955861;29;20403;-63
2023/06/29 14:55:23;;;;;;;3.07;2.77;;;28.90;58.60;;;;;;4955544;29;20196;-63
2023/06/29 14:57:49;;;;;;;2.33;2.23;;;28.80;58.50;;;;;;4955840;28;20226;-63
2023/06/29 15:00:15;;;;;;;2.10;2.00;;;28.70;58.40;;;;;;4956130;29;20200;-63
2023/06/29 15:02:41;;;;;;;2.30;2.10;;;28.60;59.20;;;;;;4969164;28;20184;-64
2023/06/29 15:05:07;;;;;;;2.23;2.13;;;28.60;59.60;;;;;;4974493;28;20427;-64
2023/06/29 15:07:32;;;;;;;2.60;2.40;;;28.60;59.20;;;;;;4975528;28;20247;-63
2023/06/29 15:09:58;;;;;;;2.93;2.73;;;28.60;59.30;;;;;;4975364;28;20176;-64
2023/06/29 15:12:24;;;;;;;2.30;2.20;;;28.60;59.50;;;;;;4975032;28;20196;-63
2023/06/29 15:14:49;;;;;;;2.60;2.40;;;28.60;59.10;;;;;;4974532;28;20718;-63
2023/06/29 15:17:15;;;;;;;2.87;2.67;;;28.50;59.30;;;;;;4961709;28;20207;-64
2023/06/29 15:19:41;;;;;;;2.50;2.30;;;28.50;59.80;;;;;;4955400;29;20176;-63
2023/06/29 15:22:08;;;;;;;2.17;1.97;;;28.50;59.80;;;;;;4955737;29;20202;-63
2023/06/29 15:24:33;;;;;;;3.37;3.10;;;28.40;59.70;;;;;;4955125;28;20185;-63
2023/06/29 15:26:59;;;;;;;2.70;2.53;;;28.40;59.70;;;;;;4955499;29;20764;-62
2023/06/29 15:29:25;;;;;;;2.60;2.40;;;28.30;59.70;;;;;;4955398;29;20528;-62
2023/06/29 15:31:51;;;;;;;3.47;3.27;;;28.20;59.50;;;;;;4966648;28;20187;-63
2023/06/29 15:34:16;;;;;;;2.73;2.57;;;28.10;59.80;;;;;;4974279;28;20897;-63
2023/06/29 15:36:42;;;;;;;2.47;2.27;;;28.10;60.00;;;;;;4974806;28;20172;-63
2023/06/29 15:39:08;;;;;;;2.00;1.90;;;28.10;60.40;;;;;;4974877;28;20665;-63
2023/06/29 15:41:33;;;;;;;3.10;2.90;;;28.00;60.30;;;;;;4974672;28;20662;-63
2023/06/29 15:44:00;;;;;;;2.80;2.60;;;28.10;60.40;;;;;;4974222;28;20255;-63
2023/06/29 15:46:27;;;;;;;2.47;2.37;;;28.10;60.90;;;;;;4964041;28;20279;-64
2023/06/29 15:48:54;;;;;;;3.97;2.40;;;28.10;60.80;;;;;;4955308;28;20477;-64
2023/06/29 15:51:20;;;;;;;2.47;2.37;;;28.00;60.50;;;;;;4955218;28;20485;-63
2023/06/29 15:53:46;;;;;;;2.53;2.40;;;27.90;60.60;;;;;;4954912;28;20455;-63
2023/06/29 15:56:12;;;;;;;2.23;2.13;;;27.90;61.10;;;;;;4955219;28;20418;-63
2023/06/29 15:58:38;;;;;;;2.77;2.53;;;27.80;60.60;;;;;;4954828;28;20462;-63
2023/06/29 16:01:03;;;;;;;2.33;2.23;;;27.80;60.80;;;;;;4963863;28;20208;-63
2023/06/29 16:03:29;;;;;;;2.43;2.23;;;27.70;61.00;;;;;;4973903;28;20178;-63
2023/06/29 16:05:54;;;;;;;4.07;2.50;;;27.70;61.50;;;;;;4974139;28;20285;-63
2023/06/29 16:08:20;;;;;;;3.00;2.80;;;27.60;61.60;;;;;;4974320;28;20182;-63
2023/06/29 16:10:45;;;;;;;2.60;2.40;;;27.60;62.00;;;;;;4973158;28;20211;-63
2023/06/29 16:13:11;;;;;;;2.20;2.10;;;27.60;62.90;;;;;;4974014;28;20183;-62
2023/06/29 16:15:37;;;;;;;2.53;2.33;;;27.60;62.60;;;;;;4983981;28;21581;-63
2023/06/29 16:18:03;;;;;;;2.60;2.40;;;27.50;63.00;;;;;;4977398;28;20558;-61
2023/06/29 16:20:28;;;;;;;2.80;2.60;;;27.50;63.20;;;;;;4978237;28;20170;-62
2023/06/29 16:22:54;;;;;;;2.80;2.60;;;27.40;63.40;;;;;;4969991;28;20174;-62
2023/06/29 16:25:23;;;;;;;2.83;2.63;;;27.30;63.90;;;;;;4970606;28;20194;-61
2023/06/29 16:27:49;;;;;;;2.77;2.63;;;27.20;64.50;;;;;;4967554;28;20184;-61
2023/06/29 16:30:15;;;;;;;4.07;3.77;;;27.10;65.20;;;;;;4959053;28;20466;-64
2023/06/29 16:32:40;;;;;;;2.50;2.30;;;27.10;64.70;;;;;;4958321;29;20384;-62
2023/06/29 16:35:06;;;;;;;2.03;1.93;;;27.00;65.00;;;;;;4957987;29;20190;-62
2023/06/29 16:37:32;;;;;;;2.03;1.93;;;27.00;65.70;;;;;;4965356;28;20216;-65
2023/06/29 16:39:57;;;;;;;2.90;2.70;;;27.00;65.50;;;;;;4959292;28;20421;-62
2023/06/29 16:42:23;;;;;;;1.93;1.83;;;26.90;66.20;;;;;;4958326;29;20448;-59
2023/06/29 16:44:49;;;;;;;2.20;2.10;;;26.80;66.30;;;;;;4957921;29;20190;-60
2023/06/29 16:47:14;;;;;;;2.20;2.10;;;26.70;65.60;;;;;;4957698;29;20178;-62
2023/06/29 16:49:40;;;;;;;2.17;2.07;;;26.60;66.20;;;;;;4958090;28;20190;-62
2023/06/29 16:52:07;;;;;;;2.47;2.27;;;26.50;66.20;;;;;;4963237;28;20173;-64